Time,TemperatureF,DewpointF,PressureIn,WindDirection,WindDirectionDegrees,WindSpeedMPH,WindSpeedGustMPH,Humidity,HourlyPrecipIn,Conditions,Clouds,dailyrainin,SoftwareType,DateUTC
2013-03-12 00:02:00,50.4,45.0,29.97,SSE,148,11.0,-999.0,83,-99.99,,,0.00,weatherlink.com 1.10,2013-03-12 04:02:00,
2013-03-12 00:17:00,50.1,45.0,29.99,SSE,157,7.0,-999.0,83,-99.99,,,0.00,weatherlink.com 1.10,2013-03-12 04:17:00,
2013-03-12 00:32:00,49.9,45.0,29.96,SE,142,10.0,-999.0,84,-99.99,,,0.00,weatherlink.com 1.10,2013-03-12 04:32:00,
2013-03-12 00:47:00,49.9,45.0,29.95,SE,138,8.0,-999.0,84,-99.99,,,0.00,weatherlink.com 1.10,2013-03-12 04:47:00,
2013-03-12 01:02:00,49.8,46.0,29.94,SSE,163,8.0,-999.0,85,-99.99,,,0.00,weatherlink.com 1.10,2013-03-12 05:02:00,
2013-03-12 01:17:00,49.9,46.0,29.95,SE,135,3.0,-999.0,86,-99.99,,,0.00,weatherlink.com 1.10,2013-03-12 05:17:00,
2013-03-12 01:32:00,49.8,46.0,29.94,SSE,160,5.0,-999.0,86,-99.99,,,0.00,weatherlink.com 1.10,2013-03-12 05:32:00,
2013-03-12 01:47:00,49.8,46.0,29.93,SE,138,10.0,-999.0,87,-99.99,,,0.00,weatherlink.com 1.10,2013-03-12 05:47:00,
2013-03-12 02:02:00,49.9,46.0,29.92,ESE,122,4.0,-999.0,87,-99.99,,,0.00,weatherlink.com 1.10,2013-03-12 06:02:00,
2013-03-12 02:17:00,49.9,46.0,29.92,SSE,159,10.0,-999.0,87,-99.99,,,0.00,weatherlink.com 1.10,2013-03-12 06:17:00,
2013-03-12 02:32:00,50.1,46.0,29.93,SSE,162,5.0,-999.0,87,-99.99,,,0.00,weatherlink.com 1.10,2013-03-12 06:32:00,
2013-03-12 02:47:00,50.4,47.0,29.91,SSE,159,4.0,-999.0,87,-99.99,,,0.00,weatherlink.com 1.10,2013-03-12 06:47:00,
2013-03-12 03:02:00,50.1,46.0,29.91,SSE,167,3.0,-999.0,87,-99.99,,,0.00,weatherlink.com 1.10,2013-03-12 07:02:00,
2013-03-12 03:17:00,49.9,47.0,29.90,SE,136,5.0,-999.0,88,-99.99,,,0.00,weatherlink.com 1.10,2013-03-12 07:17:00,
2013-03-12 03:32:00,49.8,47.0,29.90,SE,134,4.0,-999.0,89,-99.99,,,0.01,weatherlink.com 1.10,2013-03-12 07:32:00,
2013-03-12 03:47:00,49.6,47.0,29.89,SE,128,4.0,-999.0,90,-99.99,,,0.01,weatherlink.com 1.10,2013-03-12 07:47:00,
2013-03-12 04:02:00,49.5,47.0,29.88,SE,144,5.0,-999.0,91,-99.99,,,0.01,weatherlink.com 1.10,2013-03-12 08:02:00,
2013-03-12 04:17:00,49.5,47.0,29.87,SE,146,3.0,-999.0,92,-99.99,,,0.01,weatherlink.com 1.10,2013-03-12 08:17:00,
2013-03-12 04:32:00,49.4,47.0,29.86,SSE,165,5.0,-999.0,92,-99.99,,,0.01,weatherlink.com 1.10,2013-03-12 08:32:00,
2013-03-12 04:47:00,49.4,48.0,29.86,ESE,117,5.0,-999.0,93,-99.99,,,0.01,weatherlink.com 1.10,2013-03-12 08:47:00,
2013-03-12 05:03:00,49.5,48.0,29.86,SSE,150,9.0,-999.0,93,-99.99,,,0.01,weatherlink.com 1.10,2013-03-12 09:03:00,
2013-03-12 05:17:00,49.5,48.0,29.86,ESE,123,11.0,-999.0,93,-99.99,,,0.01,weatherlink.com 1.10,2013-03-12 09:17:00,
2013-03-12 05:33:00,49.6,47.0,29.86,SSE,151,11.0,-999.0,92,-99.99,,,0.01,weatherlink.com 1.10,2013-03-12 09:33:00,
2013-03-12 05:47:00,49.6,48.0,29.86,SE,141,9.0,-999.0,93,-99.99,,,0.01,weatherlink.com 1.10,2013-03-12 09:47:00,
2013-03-12 06:03:00,49.4,48.0,29.86,South,191,7.0,-999.0,93,-99.99,,,0.02,weatherlink.com 1.10,2013-03-12 10:03:00,
2013-03-12 06:17:00,49.2,47.0,29.85,SSE,158,4.0,-999.0,93,-99.99,,,0.02,weatherlink.com 1.10,2013-03-12 10:17:00,
2013-03-12 06:33:00,49.1,48.0,29.85,SSW,192,6.0,-999.0,94,-99.99,,,0.03,weatherlink.com 1.10,2013-03-12 10:33:00,
2013-03-12 06:48:00,48.9,48.0,29.85,SSE,167,4.0,-999.0,95,-99.99,,,0.04,weatherlink.com 1.10,2013-03-12 10:48:00,
2013-03-12 07:03:00,49.1,48.0,29.84,SE,129,7.0,-999.0,95,-99.99,,,0.05,weatherlink.com 1.10,2013-03-12 11:03:00,
2013-03-12 07:18:00,49.1,48.0,29.84,SSE,163,4.0,-999.0,96,-99.99,,,0.06,weatherlink.com 1.10,2013-03-12 11:18:00,
2013-03-12 07:33:00,49.2,48.0,29.83,SSE,150,3.0,-999.0,96,-99.99,,,0.08,weatherlink.com 1.10,2013-03-12 11:33:00,
2013-03-12 07:48:00,49.4,49.0,29.82,SSE,150,4.0,-999.0,97,-99.99,,,0.11,weatherlink.com 1.10,2013-03-12 11:48:00,
2013-03-12 08:18:00,49.9,49.0,29.80,SSE,163,11.0,-999.0,98,-99.99,,,0.19,weatherlink.com 1.10,2013-03-12 12:18:00,
2013-03-12 08:33:00,50.2,50.0,29.80,SE,132,12.0,-999.0,98,-99.99,,,0.19,weatherlink.com 1.10,2013-03-12 12:33:00,
2013-03-12 08:48:00,50.4,50.0,29.79,SSE,150,11.0,-999.0,98,-99.99,,,0.19,weatherlink.com 1.10,2013-03-12 12:48:00,
2013-03-12 09:03:00,50.1,50.0,29.79,SSE,159,7.0,-999.0,98,-99.99,,,0.19,weatherlink.com 1.10,2013-03-12 13:03:00,
2013-03-12 09:18:00,49.9,50.0,29.79,SE,146,7.0,-999.0,99,-99.99,,,0.20,weatherlink.com 1.10,2013-03-12 13:18:00,
2013-03-12 09:33:00,49.9,50.0,29.78,SSE,155,6.0,-999.0,99,-99.99,,,0.21,weatherlink.com 1.10,2013-03-12 13:33:00,
2013-03-12 09:48:00,50.1,50.0,29.77,SSE,158,6.0,-999.0,99,-99.99,,,0.23,weatherlink.com 1.10,2013-03-12 13:48:00,
2013-03-12 10:03:00,50.2,50.0,29.76,SE,130,9.0,-999.0,99,-99.99,,,0.25,weatherlink.com 1.10,2013-03-12 14:03:00,
2013-03-12 10:18:00,50.4,50.0,29.75,SSE,153,9.0,-999.0,99,-99.99,,,0.27,weatherlink.com 1.10,2013-03-12 14:18:00,
2013-03-12 10:33:00,50.4,50.0,29.74,SSE,151,11.0,-999.0,99,-99.99,,,0.30,weatherlink.com 1.10,2013-03-12 14:33:00,
2013-03-12 10:48:00,50.4,50.0,29.74,SE,125,16.0,-999.0,99,-99.99,,,0.33,weatherlink.com 1.10,2013-03-12 14:48:00,
2013-03-12 11:03:00,50.4,50.0,29.73,SE,136,10.0,-999.0,99,-99.99,,,0.39,weatherlink.com 1.10,2013-03-12 15:03:00,
2013-03-12 11:18:00,49.9,50.0,29.72,SSE,153,9.0,-999.0,99,-99.99,,,0.43,weatherlink.com 1.10,2013-03-12 15:18:00,
2013-03-12 11:33:00,50.4,50.0,29.71,SE,127,10.0,-999.0,100,-99.99,,,0.44,weatherlink.com 1.10,2013-03-12 15:33:00,
2013-03-12 11:48:00,50.5,51.0,29.71,SSW,211,3.0,-999.0,100,-99.99,,,0.44,weatherlink.com 1.10,2013-03-12 15:48:00,
2013-03-12 12:03:00,53.1,53.0,29.74,SSW,196,3.0,-999.0,100,-99.99,,,0.58,weatherlink.com 1.10,2013-03-12 16:03:00,
2013-03-12 12:18:00,54.7,55.0,29.73,SSE,161,0.0,-999.0,100,-99.99,,,0.71,weatherlink.com 1.10,2013-03-12 16:18:00,
2013-03-12 12:33:00,56.0,56.0,29.73,SSE,161,0.0,-999.0,100,-99.99,,,0.73,weatherlink.com 1.10,2013-03-12 16:33:00,
2013-03-12 12:48:00,55.1,55.0,29.73,SSE,161,0.0,-999.0,100,-99.99,,,0.74,weatherlink.com 1.10,2013-03-12 16:48:00,
2013-03-12 13:03:00,53.5,54.0,29.74,NNW,335,3.0,-999.0,100,-99.99,,,0.76,weatherlink.com 1.10,2013-03-12 17:03:00,
2013-03-12 13:18:00,52.8,53.0,29.74,WNW,282,1.0,-999.0,100,-99.99,,,0.78,weatherlink.com 1.10,2013-03-12 17:18:00,
2013-03-12 13:33:00,52.2,52.0,29.74,NNW,330,12.0,-999.0,100,-99.99,,,0.79,weatherlink.com 1.10,2013-03-12 17:33:00,
2013-03-12 13:48:00,52.2,52.0,29.75,NW,311,3.0,-999.0,100,-99.99,,,0.79,weatherlink.com 1.10,2013-03-12 17:48:00,
2013-03-12 14:03:00,53.2,53.0,29.75,WNW,296,2.0,-999.0,99,-99.99,,,0.79,weatherlink.com 1.10,2013-03-12 18:03:00,
2013-03-12 14:18:00,54.2,54.0,29.75,West,277,5.0,-999.0,98,-99.99,,,0.79,weatherlink.com 1.10,2013-03-12 18:18:00,
2013-03-12 14:33:00,55.4,53.0,29.75,NNW,338,12.0,-999.0,91,-99.99,,,0.79,weatherlink.com 1.10,2013-03-12 18:33:00,
2013-03-12 14:48:00,56.2,52.0,29.74,North,349,3.0,-999.0,87,-99.99,,,0.79,weatherlink.com 1.10,2013-03-12 18:48:00,
2013-03-12 15:03:00,56.7,51.0,29.74,SE,144,3.0,-999.0,82,-99.99,,,0.79,weatherlink.com 1.10,2013-03-12 19:03:00,
2013-03-12 15:18:00,57.6,51.0,29.75,NNW,337,2.0,-999.0,79,-99.99,,,0.79,weatherlink.com 1.10,2013-03-12 19:18:00,
2013-03-12 15:33:00,58.7,49.0,29.74,West,266,10.0,-999.0,71,-99.99,,,0.79,weatherlink.com 1.10,2013-03-12 19:33:00,
2013-03-12 15:48:00,58.4,47.0,29.73,NW,318,7.0,-999.0,66,-99.99,,,0.79,weatherlink.com 1.10,2013-03-12 19:48:00,
2013-03-12 16:03:00,58.6,48.0,29.74,West,271,13.0,-999.0,68,-99.99,,,0.79,weatherlink.com 1.10,2013-03-12 20:03:00,
2013-03-12 16:18:00,58.0,46.0,29.75,North,6,2.0,-999.0,65,-99.99,,,0.79,weatherlink.com 1.10,2013-03-12 20:18:00,
2013-03-12 16:33:00,57.0,45.0,29.76,NW,326,8.0,-999.0,65,-99.99,,,0.79,weatherlink.com 1.10,2013-03-12 20:33:00,
2013-03-12 16:48:00,56.5,45.0,29.77,WNW,291,3.0,-999.0,65,-99.99,,,0.79,weatherlink.com 1.10,2013-03-12 20:48:00,
2013-03-12 17:03:00,56.2,44.0,29.78,NNW,339,6.0,-999.0,64,-99.99,,,0.79,weatherlink.com 1.10,2013-03-12 21:03:00,
2013-03-12 17:18:00,55.6,43.0,29.79,NW,309,7.0,-999.0,63,-99.99,,,0.79,weatherlink.com 1.10,2013-03-12 21:18:00,
2013-03-12 17:33:00,55.0,42.0,29.80,WNW,302,3.0,-999.0,62,-99.99,,,0.79,weatherlink.com 1.10,2013-03-12 21:33:00,
2013-03-12 17:48:00,54.5,42.0,29.80,NNW,337,6.0,-999.0,62,-99.99,,,0.79,weatherlink.com 1.10,2013-03-12 21:48:00,
2013-03-12 18:03:00,54.7,40.0,29.80,WNW,290,9.0,-999.0,58,-99.99,,,0.79,weatherlink.com 1.10,2013-03-12 22:03:00,
2013-03-12 18:18:00,53.5,38.0,29.82,NW,319,7.0,-999.0,57,-99.99,,,0.79,weatherlink.com 1.10,2013-03-12 22:18:00,
2013-03-12 18:33:00,52.9,39.0,29.82,WNW,303,1.0,-999.0,59,-99.99,,,0.79,weatherlink.com 1.10,2013-03-12 22:33:00,
2013-03-12 18:48:00,52.5,38.0,29.82,North,359,4.0,-999.0,58,-99.99,,,0.79,weatherlink.com 1.10,2013-03-12 22:48:00,
2013-03-12 19:03:00,51.4,37.0,29.83,NNW,345,6.0,-999.0,59,-99.99,,,0.79,weatherlink.com 1.10,2013-03-12 23:03:00,
2013-03-12 19:19:00,50.4,36.0,29.84,NW,312,9.0,-999.0,59,-99.99,,,0.79,weatherlink.com 1.10,2013-03-12 23:19:00,
2013-03-12 19:33:00,49.4,36.0,29.85,WNW,300,6.0,-999.0,61,-99.99,,,0.79,weatherlink.com 1.10,2013-03-12 23:33:00,
2013-03-12 19:48:00,48.6,35.0,29.86,NNW,342,4.0,-999.0,60,-99.99,,,0.79,weatherlink.com 1.10,2013-03-12 23:48:00,
2013-03-12 20:03:00,47.7,35.0,29.87,North,359,4.0,-999.0,62,-99.99,,,0.79,weatherlink.com 1.10,2013-03-13 00:03:00,
2013-03-12 20:18:00,47.0,35.0,29.88,WNW,297,1.0,-999.0,63,-99.99,,,0.79,weatherlink.com 1.10,2013-03-13 00:18:00,
2013-03-12 20:33:00,46.4,35.0,29.88,WNW,294,7.0,-999.0,65,-99.99,,,0.79,weatherlink.com 1.10,2013-03-13 00:33:00,
2013-03-12 20:48:00,46.0,35.0,29.89,NNW,345,4.0,-999.0,66,-99.99,,,0.79,weatherlink.com 1.10,2013-03-13 00:48:00,
2013-03-12 21:03:00,45.4,35.0,29.90,NNW,334,4.0,-999.0,66,-99.99,,,0.79,weatherlink.com 1.10,2013-03-13 01:03:00,
2013-03-12 21:18:00,44.9,34.0,29.90,NNW,347,2.0,-999.0,67,-99.99,,,0.79,weatherlink.com 1.10,2013-03-13 01:18:00,
2013-03-12 21:33:00,44.5,34.0,29.91,NNW,335,2.0,-999.0,67,-99.99,,,0.79,weatherlink.com 1.10,2013-03-13 01:33:00,
2013-03-12 22:03:00,43.8,33.0,29.92,NW,319,0.0,-999.0,67,-99.99,,,0.79,weatherlink.com 1.10,2013-03-13 02:03:00,
2013-03-12 22:18:00,43.8,33.0,29.93,North,353,5.0,-999.0,66,-99.99,,,0.79,weatherlink.com 1.10,2013-03-13 02:18:00,
2013-03-12 22:33:00,43.8,32.0,29.93,NW,311,5.0,-999.0,64,-99.99,,,0.79,weatherlink.com 1.10,2013-03-13 02:33:00,
2013-03-12 22:48:00,43.5,32.0,29.93,NNW,344,4.0,-999.0,64,-99.99,,,0.79,weatherlink.com 1.10,2013-03-13 02:48:00,
2013-03-12 23:03:00,43.2,32.0,29.94,NW,318,3.0,-999.0,64,-99.99,,,0.79,weatherlink.com 1.10,2013-03-13 03:03:00,
2013-03-12 23:18:00,42.6,31.0,29.94,NW,315,1.0,-999.0,65,-99.99,,,0.79,weatherlink.com 1.10,2013-03-13 03:18:00,
2013-03-12 23:33:00,42.2,31.0,29.95,NW,305,1.0,-999.0,66,-99.99,,,0.79,weatherlink.com 1.10,2013-03-13 03:33:00,
2013-03-12 23:48:00,41.6,32.0,29.95,NNW,328,0.0,-999.0,68,-99.99,,,0.79,weatherlink.com 1.10,2013-03-13 03:48:00,